createdAt,value
2019-03-24T06:17:29.335Z,51.81
2019-03-24T06:19:57.222Z,51.80
2019-03-24T06:22:25.132Z,51.81
2019-03-24T06:24:53.178Z,51.77
2019-03-24T06:27:21.160Z,51.75
2019-03-24T06:29:49.040Z,51.67
2019-03-24T06:32:17.024Z,51.64
2019-03-24T06:34:46.987Z,51.51
2019-03-24T06:37:18.072Z,51.52
2019-03-24T06:39:45.964Z,51.50
2019-03-24T06:42:13.911Z,51.45
2019-03-24T06:44:41.858Z,51.36
2019-03-24T06:47:09.803Z,51.29
2019-03-24T06:49:37.722Z,51.31
2019-03-24T06:52:05.692Z,51.23
2019-03-24T06:54:33.572Z,51.22
2019-03-24T06:57:01.370Z,51.22
2019-03-24T06:59:29.236Z,51.18
2019-03-24T07:01:57.177Z,51.10
2019-03-24T07:04:25.042Z,51.07
2019-03-24T07:06:53.004Z,51.03
2019-03-24T07:09:20.827Z,50.94
2019-03-24T07:11:48.648Z,50.95
2019-03-24T07:14:16.603Z,51.00
2019-03-24T07:16:44.503Z,50.91
2019-03-24T07:19:12.354Z,50.86
2019-03-24T07:21:40.245Z,50.77
2019-03-24T07:24:08.090Z,50.74
2019-03-24T07:26:35.991Z,50.75
2019-03-24T07:29:03.939Z,50.74
2019-03-24T07:31:31.809Z,50.65
2019-03-24T07:33:59.715Z,50.60
2019-03-24T07:36:27.550Z,50.55
2019-03-24T07:38:55.449Z,50.53
2019-03-24T07:41:23.426Z,50.51
2019-03-24T07:43:51.267Z,50.46
2019-03-24T07:46:19.166Z,50.43
2019-03-24T07:48:47.085Z,50.36
2019-03-24T07:51:14.906Z,50.31
2019-03-24T07:53:42.858Z,50.22
2019-03-24T07:56:10.661Z,50.17
2019-03-24T07:58:41.209Z,50.12
2019-03-24T08:09:37.265Z,49.98
2019-03-24T08:12:05.310Z,49.96
2019-03-24T08:14:33.131Z,49.93
2019-03-24T08:17:01.037Z,49.91
2019-03-24T08:19:28.860Z,49.91
2019-03-24T08:21:56.845Z,49.90
2019-03-24T08:24:24.819Z,49.87
2019-03-24T08:26:52.723Z,49.86
2019-03-24T08:29:20.582Z,49.88
2019-03-24T08:31:48.452Z,49.86
2019-03-24T08:34:17.729Z,49.83
2019-03-24T08:36:46.852Z,49.81
2019-03-24T08:39:14.727Z,49.78
2019-03-24T08:41:42.666Z,49.72
2019-03-24T08:44:10.496Z,49.72
2019-03-24T08:46:38.569Z,49.69
2019-03-24T08:49:09.068Z,49.62
2019-03-24T08:51:37.713Z,49.57
2019-03-24T08:54:05.616Z,49.48
2019-03-24T08:56:33.469Z,49.54
2019-03-24T08:59:01.328Z,49.54
2019-03-24T09:01:29.213Z,49.49
2019-03-24T09:03:57.133Z,49.45
2019-03-24T09:06:25.281Z,49.39
2019-03-24T09:08:53.087Z,49.37
2019-03-24T09:11:30.673Z,49.37
2019-03-24T09:13:50.561Z,49.36
2019-03-24T09:16:18.293Z,49.36
2019-03-24T09:18:52.450Z,49.32
2019-03-24T09:21:15.661Z,49.33
2019-03-24T09:23:43.386Z,49.29
2019-03-24T09:26:11.106Z,49.22
2019-03-24T09:28:38.870Z,49.18
2019-03-24T09:31:06.616Z,49.14
2019-03-24T09:33:34.434Z,49.08
2019-03-24T09:36:02.165Z,48.96
2019-03-24T09:38:29.899Z,48.91
2019-03-24T09:40:57.674Z,48.83
2019-03-24T09:43:25.392Z,48.78
2019-03-24T09:45:53.211Z,48.79
2019-03-24T09:48:20.952Z,48.75
2019-03-24T09:50:48.693Z,48.72
2019-03-24T09:53:16.422Z,48.68
2019-03-24T09:55:44.139Z,48.65
2019-03-24T09:58:11.901Z,48.64
2019-03-24T10:00:39.654Z,48.64
2019-03-24T10:03:07.429Z,48.59
2019-03-24T10:05:35.323Z,48.59
2019-03-24T10:08:03.049Z,48.63
2019-03-24T10:10:30.816Z,48.73
2019-03-24T10:12:58.575Z,48.82
2019-03-24T10:15:26.319Z,48.85
2019-03-24T10:17:54.039Z,48.84
2019-03-24T10:20:22.725Z,48.73
2019-03-24T10:22:50.583Z,48.75
2019-03-24T10:25:18.349Z,48.68
2019-03-24T10:27:46.046Z,48.57
2019-03-24T10:30:13.866Z,48.46
2019-03-24T10:32:41.585Z,48.44
2019-03-24T10:35:09.289Z,48.37
2019-03-24T10:37:37.030Z,48.21
2019-03-24T10:40:04.946Z,48.17
2019-03-24T10:42:32.706Z,48.15
2019-03-24T10:45:00.395Z,48.16
2019-03-24T10:47:28.178Z,48.20
2019-03-24T10:49:55.924Z,48.27
2019-03-24T10:52:23.681Z,48.16
2019-03-24T10:54:51.422Z,48.02
2019-03-24T10:57:19.305Z,48.01
2019-03-24T10:59:47.055Z,48.00
2019-03-24T11:02:14.739Z,48.02
2019-03-24T11:04:42.471Z,48.09
2019-03-24T11:07:10.209Z,48.14
2019-03-24T11:09:37.951Z,48.10
2019-03-24T11:12:05.765Z,48.03
2019-03-24T11:14:33.478Z,48.05
2019-03-24T11:17:01.255Z,47.97
2019-03-24T11:19:35.719Z,47.85
2019-03-24T11:21:58.714Z,47.75
2019-03-24T11:24:26.432Z,47.63
2019-03-24T11:26:54.169Z,47.55
2019-03-24T11:29:21.961Z,47.54
2019-03-24T11:31:49.739Z,47.54
2019-03-24T11:34:17.431Z,47.48
2019-03-24T11:36:45.172Z,47.53
2019-03-24T11:39:12.889Z,47.65
2019-03-24T11:41:40.734Z,47.64
2019-03-24T11:44:08.458Z,47.54
2019-03-24T11:46:36.230Z,47.62
2019-03-24T11:49:04.085Z,47.47
2019-03-24T11:51:31.827Z,47.38
2019-03-24T11:53:59.567Z,47.33
2019-03-24T11:56:27.370Z,47.22
2019-03-24T11:58:55.158Z,47.15
2019-03-24T12:01:22.944Z,46.99
2019-03-24T12:03:50.753Z,46.99
2019-03-24T12:06:18.530Z,46.92
2019-03-24T12:08:46.254Z,46.84
2019-03-24T12:11:14.145Z,46.82
2019-03-24T12:13:41.882Z,46.93
2019-03-24T12:16:09.591Z,47.06
2019-03-24T12:18:37.407Z,46.96
2019-03-24T12:21:05.146Z,46.90
2019-03-24T12:23:32.919Z,46.78
2019-03-24T12:26:00.645Z,46.75
2019-03-24T12:28:28.439Z,46.70
2019-03-24T12:30:56.177Z,46.75
2019-03-24T12:33:23.894Z,46.75
2019-03-24T12:35:51.666Z,46.94
2019-03-24T12:38:19.408Z,47.03
2019-03-24T12:40:47.689Z,47.05
2019-03-24T12:43:19.779Z,46.98
2019-03-24T12:45:45.122Z,47.03
2019-03-24T12:48:12.994Z,47.12
2019-03-24T12:50:40.755Z,47.04
2019-03-24T12:53:08.524Z,46.95
2019-03-24T12:55:36.326Z,46.95
2019-03-24T12:58:04.040Z,47.06
2019-03-24T13:00:33.708Z,47.13
2019-03-24T13:03:01.457Z,47.07
2019-03-24T13:05:29.148Z,47.00
2019-03-24T13:07:59.218Z,46.87
2019-03-24T13:10:26.965Z,46.81
2019-03-24T13:12:54.726Z,46.66
2019-03-24T13:15:22.505Z,46.67
2019-03-24T13:17:50.321Z,46.63
2019-03-24T13:20:27.854Z,46.58
2019-03-24T13:22:47.720Z,46.66
2019-03-24T13:25:15.459Z,46.46
2019-03-24T13:27:43.215Z,46.60
2019-03-24T13:30:10.962Z,46.49
2019-03-24T13:32:38.745Z,46.61
2019-03-24T13:35:06.480Z,46.43
2019-03-24T13:37:34.227Z,46.33
2019-03-24T13:40:02.061Z,46.28
2019-03-24T13:42:29.880Z,46.27
2019-03-24T13:44:57.647Z,46.35
2019-03-24T13:47:25.407Z,46.40
2019-03-24T13:49:53.249Z,46.22
2019-03-24T13:52:21.196Z,46.28
2019-03-24T13:54:48.934Z,46.20
2019-03-24T13:57:16.771Z,46.26
2019-03-24T13:59:44.499Z,46.21
2019-03-24T14:02:12.449Z,46.08
2019-03-24T14:04:40.228Z,46.05
2019-03-24T14:07:07.999Z,45.99
2019-03-24T14:09:35.766Z,45.95
2019-03-24T14:12:03.496Z,45.81
2019-03-24T14:14:31.346Z,45.75
2019-03-24T14:16:59.087Z,45.48
2019-03-24T14:19:26.811Z,45.18
2019-03-24T14:21:54.617Z,44.66
2019-03-24T14:24:22.366Z,43.71
2019-03-24T14:26:50.135Z,42.85
2019-03-24T14:29:17.907Z,42.04
2019-03-24T14:31:45.612Z,41.40
2019-03-24T14:34:13.367Z,40.89
2019-03-24T14:36:41.154Z,40.56
2019-03-24T14:39:08.920Z,40.24
2019-03-24T14:41:36.646Z,39.85
2019-03-24T14:44:04.427Z,40.46
2019-03-24T14:46:32.175Z,40.88
2019-03-24T14:48:59.878Z,40.48
2019-03-24T14:51:27.633Z,40.03
2019-03-24T14:53:55.402Z,39.74
2019-03-24T14:56:23.186Z,39.62
2019-03-24T14:58:51.003Z,39.54
2019-03-24T15:01:18.831Z,40.08
2019-03-24T15:03:46.575Z,40.06
2019-03-24T15:06:14.339Z,39.98
2019-03-24T15:08:44.052Z,40.03
2019-03-24T15:11:11.951Z,40.08
2019-03-24T15:13:39.669Z,40.16
2019-03-24T15:16:07.386Z,40.22
2019-03-24T15:18:35.180Z,40.22
2019-03-24T15:21:05.955Z,40.26
2019-03-24T15:23:32.622Z,40.21
2019-03-24T15:26:00.413Z,40.27
2019-03-24T15:28:28.174Z,40.28
2019-03-24T15:30:55.916Z,40.43
2019-03-24T15:33:23.680Z,40.28
2019-03-24T15:35:51.478Z,40.42
2019-03-24T15:38:19.258Z,41.06
2019-03-24T15:40:49.560Z,40.68
2019-03-24T15:43:16.707Z,40.46
2019-03-24T15:45:44.463Z,41.06
2019-03-24T15:48:12.244Z,41.52
2019-03-24T15:50:40.039Z,42.03
2019-03-24T15:53:07.801Z,42.44
2019-03-24T15:55:35.509Z,42.63
2019-03-24T15:58:03.268Z,42.31
2019-03-24T16:00:46.774Z,41.76
2019-03-24T16:03:14.554Z,41.71
2019-03-24T16:05:42.281Z,41.90
2019-03-24T16:08:10.151Z,41.74
2019-03-24T16:10:37.882Z,41.49
2019-03-24T16:13:05.659Z,41.47
2019-03-24T16:15:33.412Z,41.37
2019-03-24T16:18:01.170Z,41.33
2019-03-24T16:20:28.912Z,41.32
2019-03-24T16:22:56.685Z,41.39
2019-03-24T16:25:24.428Z,41.37
2019-03-24T16:27:52.213Z,41.75
2019-03-24T16:30:19.961Z,42.18
2019-03-24T16:32:47.734Z,42.53
2019-03-24T16:35:15.476Z,42.89
2019-03-24T16:37:43.195Z,43.25
2019-03-24T16:40:11.058Z,43.45
2019-03-24T16:42:38.839Z,43.46
2019-03-24T16:45:06.893Z,43.53
2019-03-24T16:47:34.643Z,43.70
2019-03-24T16:50:02.472Z,43.97
2019-03-24T16:52:30.213Z,44.28
2019-03-24T16:54:58.122Z,44.57
2019-03-24T16:57:25.873Z,44.75
2019-03-24T16:59:53.674Z,44.84
2019-03-24T17:02:21.420Z,44.98
2019-03-24T17:04:49.122Z,45.17
2019-03-24T17:07:16.862Z,45.38
2019-03-24T17:09:44.575Z,45.63
2019-03-24T17:12:12.322Z,45.85
2019-03-24T17:14:40.058Z,46.04
2019-03-24T17:17:07.980Z,46.18
2019-03-24T17:19:35.745Z,46.32
2019-03-24T17:22:03.489Z,46.51
2019-03-24T17:24:31.283Z,46.67
2019-03-24T17:26:59.170Z,46.84
2019-03-24T17:29:26.900Z,46.99
2019-03-24T17:31:54.633Z,47.10
2019-03-24T17:34:22.382Z,47.29
2019-03-24T17:36:50.116Z,47.45
2019-03-24T17:39:17.877Z,47.61
2019-03-24T17:41:45.650Z,47.73
2019-03-24T17:44:13.426Z,47.84
2019-03-24T17:46:41.180Z,47.99
2019-03-24T17:49:08.981Z,48.10
2019-03-24T17:51:36.718Z,48.25
2019-03-24T17:54:04.452Z,48.35
2019-03-24T17:56:32.221Z,48.48
2019-03-24T17:58:59.970Z,48.57
2019-03-24T18:01:27.747Z,48.68
2019-03-24T18:03:55.484Z,48.79
2019-03-24T18:06:23.272Z,48.85
2019-03-24T18:08:50.992Z,48.96
2019-03-24T18:11:18.767Z,49.02
2019-03-24T18:13:46.466Z,49.03
2019-03-24T18:16:14.222Z,49.07
2019-03-24T18:18:41.959Z,49.12
2019-03-24T18:21:09.666Z,49.17
2019-03-24T18:23:37.418Z,49.25
2019-03-24T18:26:05.142Z,49.32
2019-03-24T18:28:32.907Z,49.37
2019-03-24T18:31:00.662Z,49.39
2019-03-24T18:33:28.384Z,49.43
2019-03-24T18:35:56.150Z,49.49
2019-03-24T18:38:23.898Z,49.60
2019-03-24T18:40:51.716Z,49.61
2019-03-24T18:43:19.471Z,49.69
2019-03-24T18:45:47.223Z,49.71
2019-03-24T18:48:14.974Z,49.75
2019-03-24T18:50:42.723Z,49.80
2019-03-24T18:53:10.498Z,49.87
2019-03-24T18:55:38.237Z,49.92
2019-03-24T18:58:06.183Z,49.96
2019-03-24T19:00:33.938Z,49.97
2019-03-24T19:03:01.689Z,50.03
2019-03-24T19:05:29.466Z,50.04
2019-03-24T19:07:57.214Z,50.07
2019-03-24T19:10:25.009Z,50.06
2019-03-24T19:12:52.779Z,50.08
2019-03-24T19:15:20.507Z,50.13
2019-03-24T19:17:48.267Z,50.12
2019-03-24T19:20:16.038Z,50.14
2019-03-24T19:22:43.823Z,50.22
2019-03-24T19:25:11.544Z,50.20
2019-03-24T19:27:39.336Z,50.25
2019-03-24T19:30:08.159Z,50.22
2019-03-24T19:32:35.946Z,50.25
2019-03-24T19:35:04.333Z,50.30
2019-03-24T19:37:33.321Z,50.35
2019-03-24T19:40:01.270Z,50.39
2019-03-24T19:42:29.081Z,50.37
2019-03-24T19:44:56.881Z,50.40
2019-03-24T19:47:24.754Z,50.39
2019-03-24T19:49:52.492Z,50.43
2019-03-24T19:52:20.237Z,50.40
2019-03-24T19:54:47.978Z,50.42
2019-03-24T19:57:15.722Z,50.37
2019-03-24T19:59:43.478Z,50.40
2019-03-24T20:02:11.228Z,50.45
2019-03-24T20:04:39.015Z,50.45
2019-03-24T20:07:06.752Z,50.53
2019-03-24T20:09:34.498Z,50.55
2019-03-24T20:12:02.405Z,50.59
2019-03-24T20:14:30.151Z,50.53
2019-03-24T20:16:57.924Z,50.44
2019-03-24T20:19:25.706Z,50.43
2019-03-24T20:21:53.574Z,50.45
2019-03-24T20:24:21.293Z,50.48
2019-03-24T20:26:49.056Z,50.51
2019-03-24T20:29:16.860Z,50.53
2019-03-24T20:31:44.622Z,50.55
2019-03-24T20:34:12.395Z,50.54
2019-03-24T20:36:40.142Z,50.51
2019-03-24T20:39:08.846Z,50.54
2019-03-24T20:41:36.620Z,50.48
2019-03-24T20:44:04.418Z,50.50
2019-03-24T20:46:32.186Z,50.53
2019-03-24T20:48:59.962Z,50.53
2019-03-24T20:51:27.721Z,50.47
2019-03-24T20:53:55.501Z,50.45
2019-03-24T20:56:23.220Z,50.49
2019-03-24T20:58:51.524Z,50.41
2019-03-24T21:01:19.262Z,50.45
2019-03-24T21:03:47.142Z,50.43
2019-03-24T21:06:14.933Z,50.43
2019-03-24T21:08:42.633Z,50.49
2019-03-24T21:11:10.412Z,50.89
2019-03-24T21:13:38.366Z,50.93
2019-03-24T21:16:06.272Z,50.94
2019-03-24T21:18:34.097Z,51.16
2019-03-24T21:21:02.113Z,51.11
2019-03-24T21:23:30.203Z,51.23
2019-03-24T21:25:58.042Z,51.22
2019-03-24T21:28:25.987Z,51.32
2019-03-24T21:30:53.859Z,50.96
2019-03-24T21:33:21.645Z,50.96
2019-03-24T21:35:49.918Z,51.39
2019-03-24T21:38:17.880Z,51.63
2019-03-24T21:40:45.786Z,51.45
2019-03-24T21:43:13.672Z,51.52
2019-03-24T21:45:41.497Z,51.67
2019-03-24T21:48:09.396Z,51.74
2019-03-24T21:50:37.256Z,51.79
2019-03-24T21:53:05.467Z,51.63
2019-03-24T21:55:33.320Z,51.55
2019-03-24T21:58:01.050Z,51.47
2019-03-24T22:00:33.061Z,51.47
2019-03-24T22:03:00.880Z,51.64
2019-03-24T22:05:28.617Z,52.03
2019-03-24T22:07:56.555Z,52.14
2019-03-24T22:10:24.292Z,52.34
2019-03-24T22:12:52.118Z,52.48
2019-03-24T22:15:19.866Z,52.56
2019-03-24T22:17:47.619Z,52.62
2019-03-24T22:20:15.346Z,52.68
2019-03-24T22:22:43.046Z,52.67
2019-03-24T22:25:10.936Z,52.74
2019-03-24T22:27:38.752Z,52.73
2019-03-24T22:30:06.800Z,52.84
2019-03-24T22:32:34.591Z,52.91
2019-03-24T22:35:02.366Z,52.99
2019-03-24T22:37:30.102Z,52.98
2019-03-24T22:39:57.938Z,53.01
2019-03-24T22:42:25.717Z,53.04
2019-03-24T22:44:53.506Z,53.02
2019-03-24T22:47:21.241Z,52.92
2019-03-24T22:49:49.059Z,52.92
2019-03-24T22:52:16.815Z,52.95
2019-03-24T22:54:44.591Z,52.98
2019-03-24T22:57:12.378Z,53.02
2019-03-24T22:59:40.145Z,53.04
2019-03-24T23:02:07.906Z,53.04
2019-03-24T23:04:35.709Z,53.25
2019-03-24T23:07:03.453Z,52.55
2019-03-24T23:09:31.248Z,52.33
2019-03-24T23:12:00.365Z,52.46
2019-03-24T23:14:28.145Z,52.49
2019-03-24T23:16:56.087Z,52.42
2019-03-24T23:19:23.908Z,52.50
2019-03-24T23:21:51.688Z,52.44
2019-03-24T23:24:19.773Z,52.24
2019-03-24T23:26:47.637Z,52.11
2019-03-24T23:29:15.744Z,52.18
2019-03-24T23:31:43.682Z,52.30
2019-03-24T23:34:11.458Z,52.45
2019-03-24T23:36:40.972Z,52.60
2019-03-24T23:39:08.956Z,52.66
2019-03-24T23:41:36.804Z,52.76
2019-03-24T23:44:04.602Z,53.00
2019-03-24T23:46:32.618Z,53.00
2019-03-24T23:49:00.382Z,52.74
2019-03-24T23:51:28.158Z,52.88
2019-03-24T23:53:55.966Z,52.88
2019-03-24T23:56:23.789Z,52.94
2019-03-24T23:58:51.694Z,53.00
